createdAt,value
2022-10-07T00:01:04.735Z,45.17
2022-10-07T00:03:32.061Z,45.25
2022-10-07T00:06:06.979Z,44.75
2022-10-07T00:08:36.739Z,44.70
2022-10-07T00:11:09.349Z,46.17
2022-10-07T00:13:41.226Z,48.33
2022-10-07T00:16:14.020Z,45.33
2022-10-07T00:18:41.749Z,47.22
2022-10-07T00:21:11.903Z,44.17
2022-10-07T00:23:40.437Z,46.00
2022-10-07T00:26:09.141Z,44.25
2022-10-07T00:28:36.833Z,44.55
2022-10-07T00:31:15.308Z,45.63
2022-10-07T00:33:42.729Z,42.20
2022-10-07T00:36:11.553Z,42.25
2022-10-07T00:38:39.119Z,43.25
2022-10-07T00:41:07.035Z,43.05
2022-10-07T00:43:34.018Z,42.47
2022-10-07T00:46:09.018Z,42.53
2022-10-07T00:48:37.300Z,44.65
2022-10-07T00:51:04.151Z,44.80
2022-10-07T00:53:34.076Z,44.97
2022-10-07T00:56:03.028Z,44.78
2022-10-07T00:58:31.854Z,44.80
2022-10-07T01:00:58.787Z,48.45
2022-10-07T01:03:25.621Z,44.65
2022-10-07T01:05:52.347Z,45.67
2022-10-07T01:08:21.192Z,44.38
2022-10-07T01:11:14.058Z,44.67
2022-10-07T01:14:03.729Z,45.83
2022-10-07T01:17:00.917Z,46.28
2022-10-07T01:19:58.527Z,46.38
2022-10-07T01:22:28.202Z,47.22
2022-10-07T01:24:57.703Z,46.35
2022-10-07T01:27:27.621Z,48.30
2022-10-07T01:29:56.609Z,46.30
2022-10-07T01:32:37.793Z,46.53
2022-10-07T01:35:10.825Z,45.72
2022-10-07T01:37:41.774Z,48.20
2022-10-07T01:40:21.632Z,48.47
2022-10-07T01:42:50.046Z,46.22
2022-10-07T01:45:21.633Z,47.17
2022-10-07T01:47:49.308Z,47.72
2022-10-07T01:50:18.052Z,47.92
2022-10-07T01:53:15.364Z,45.25
2022-10-07T01:55:42.242Z,45.35
2022-10-07T01:58:44.512Z,45.47
2022-10-07T02:01:14.310Z,44.95
2022-10-07T02:03:54.855Z,44.20
2022-10-07T02:06:42.681Z,46.17
2022-10-07T02:09:37.831Z,45.58
2022-10-07T02:12:25.724Z,47.83
2022-10-07T02:15:08.471Z,46.17
2022-10-07T02:17:38.525Z,46.90
2022-10-07T02:20:10.370Z,47.10
2022-10-07T02:22:38.502Z,45.90
2022-10-07T02:25:07.505Z,44.15
2022-10-07T02:27:38.431Z,46.85
2022-10-07T02:30:12.872Z,46.05
2022-10-07T02:32:44.452Z,44.72
2022-10-07T02:35:18.842Z,45.22
2022-10-07T02:37:48.549Z,45.60
2022-10-07T02:40:15.611Z,45.63
2022-10-07T02:42:59.816Z,44.95
2022-10-07T02:45:48.577Z,48.65
2022-10-07T02:48:21.368Z,45.28
2022-10-07T02:50:51.765Z,45.58
2022-10-07T02:53:21.333Z,46.97
2022-10-07T02:55:50.673Z,45.97
2022-10-07T02:58:18.337Z,46.35
2022-10-07T03:00:50.950Z,45.97
2022-10-07T03:03:17.749Z,47.17
2022-10-07T03:05:44.723Z,47.88
2022-10-07T03:08:12.306Z,46.13
2022-10-07T03:10:39.132Z,45.53
2022-10-07T03:13:05.986Z,47.22
2022-10-07T03:15:39.686Z,47.92
2022-10-07T03:18:26.813Z,45.60
2022-10-07T03:20:58.069Z,46.33
2022-10-07T03:23:25.436Z,46.58
2022-10-07T03:25:54.158Z,45.65
2022-10-07T03:28:22.974Z,47.45
2022-10-07T03:30:50.591Z,44.97
2022-10-07T03:33:19.335Z,45.80
2022-10-07T03:35:46.046Z,45.95
2022-10-07T03:38:12.743Z,46.10
2022-10-07T03:40:39.827Z,43.47
2022-10-07T03:43:07.587Z,45.72
2022-10-07T03:45:37.230Z,44.85
2022-10-07T03:48:04.303Z,46.40
2022-10-07T03:50:30.928Z,45.25
2022-10-07T03:52:57.629Z,43.67
2022-10-07T03:55:24.365Z,44.85
2022-10-07T03:57:54.315Z,44.80
2022-10-07T04:00:26.726Z,43.35
2022-10-07T04:02:53.640Z,43.92
2022-10-07T04:05:21.570Z,45.00
2022-10-07T04:07:50.161Z,43.75
2022-10-07T04:10:18.657Z,44.15
2022-10-07T04:12:45.638Z,45.47
2022-10-07T04:15:15.351Z,45.30
2022-10-07T04:17:43.281Z,47.20
2022-10-07T04:20:11.089Z,45.47
2022-10-07T04:22:38.011Z,45.05
2022-10-07T04:25:24.595Z,46.63
2022-10-07T04:27:53.944Z,45.25
2022-10-07T04:30:22.926Z,43.92
2022-10-07T04:32:50.762Z,44.50
2022-10-07T04:35:18.934Z,46.28
2022-10-07T04:37:48.782Z,45.45
2022-10-07T04:40:15.789Z,46.63
2022-10-07T04:43:01.165Z,43.63
2022-10-07T04:45:27.788Z,46.50
2022-10-07T04:47:54.484Z,45.10
2022-10-07T04:50:21.146Z,43.22
2022-10-07T04:52:47.771Z,44.55
2022-10-07T04:55:14.465Z,41.75
2022-10-07T04:57:42.391Z,42.22
2022-10-07T05:00:10.333Z,44.10
2022-10-07T05:02:37.541Z,43.45
2022-10-07T05:05:04.648Z,43.63
2022-10-07T05:07:32.391Z,45.45
2022-10-07T05:09:59.514Z,45.53
2022-10-07T05:12:26.899Z,45.03
2022-10-07T05:14:53.607Z,43.45
2022-10-07T05:17:21.492Z,42.58
2022-10-07T05:19:48.286Z,42.38
2022-10-07T05:22:15.001Z,41.55
2022-10-07T05:24:41.623Z,44.75
2022-10-07T05:27:08.719Z,43.97
2022-10-07T05:29:35.362Z,42.25
2022-10-07T05:32:05.231Z,43.00
2022-10-07T05:34:32.243Z,44.05
2022-10-07T05:36:59.359Z,43.58
2022-10-07T05:39:26.023Z,42.72
2022-10-07T05:41:52.777Z,42.42
2022-10-07T05:44:19.426Z,42.03
2022-10-07T05:46:46.150Z,43.67
2022-10-07T05:49:13.094Z,43.65
2022-10-07T05:51:39.868Z,42.92
2022-10-07T05:54:06.655Z,41.78
2022-10-07T05:56:33.452Z,41.55
2022-10-07T05:59:00.243Z,42.97
2022-10-07T06:01:28.361Z,41.83
2022-10-07T06:03:57.360Z,42.22
2022-10-07T06:06:25.414Z,43.20
2022-10-07T06:08:53.107Z,39.72
2022-10-07T06:11:39.167Z,43.10
2022-10-07T06:16:32.909Z,40.05
2022-10-07T06:19:00.418Z,40.80
2022-10-07T06:21:28.350Z,41.08
2022-10-07T06:23:56.561Z,40.42
2022-10-07T06:26:23.949Z,39.78
2022-10-07T06:28:50.860Z,39.97
2022-10-07T06:31:25.053Z,40.58
2022-10-07T06:33:52.679Z,39.92
2022-10-07T06:36:19.386Z,38.13
2022-10-07T06:38:48.268Z,39.58
2022-10-07T06:41:15.941Z,38.65
2022-10-07T06:43:42.836Z,36.70
2022-10-07T06:46:14.757Z,40.10
2022-10-07T06:48:42.826Z,40.70
2022-10-07T06:51:12.582Z,39.33
2022-10-07T06:53:39.287Z,40.47
2022-10-07T06:56:06.311Z,42.35
2022-10-07T06:58:33.386Z,40.67
2022-10-07T07:01:01.017Z,40.97
2022-10-07T07:03:29.284Z,39.85
2022-10-07T07:05:56.643Z,39.65
2022-10-07T07:08:27.862Z,38.15
2022-10-07T07:10:55.593Z,38.08
2022-10-07T07:13:22.635Z,38.95
2022-10-07T07:15:57.344Z,37.72
2022-10-07T07:18:24.561Z,36.90
2022-10-07T07:20:51.819Z,36.60
2022-10-07T07:23:19.132Z,38.95
2022-10-07T07:25:46.358Z,37.35
2022-10-07T07:28:15.478Z,35.13
2022-10-07T07:30:42.751Z,36.22
2022-10-07T07:33:09.543Z,36.58
2022-10-07T07:35:41.169Z,35.83
2022-10-07T07:38:08.761Z,37.58
2022-10-07T07:40:39.495Z,35.05
2022-10-07T07:43:07.076Z,36.92
2022-10-07T07:45:36.814Z,37.03
2022-10-07T07:48:04.450Z,37.25
2022-10-07T07:50:31.149Z,36.08
2022-10-07T07:53:00.139Z,35.65
2022-10-07T07:55:26.917Z,36.58
2022-10-07T07:57:53.631Z,39.25
2022-10-07T08:00:20.559Z,38.58
2022-10-07T08:02:47.504Z,36.38
2022-10-07T08:05:14.258Z,36.75
2022-10-07T08:07:41.022Z,36.05
2022-10-07T08:10:08.149Z,36.10
2022-10-07T08:12:34.879Z,34.80
2022-10-07T08:15:01.631Z,37.45
2022-10-07T08:17:28.369Z,35.95
2022-10-07T08:19:56.140Z,35.92
2022-10-07T08:22:23.183Z,33.70
2022-10-07T08:24:49.960Z,33.42
2022-10-07T08:27:16.649Z,33.70
2022-10-07T08:29:43.413Z,31.75
2022-10-07T08:32:10.104Z,30.27
2022-10-07T08:34:36.968Z,28.48
2022-10-07T08:37:03.811Z,28.65
2022-10-07T08:39:31.176Z,27.40
2022-10-07T08:42:15.067Z,26.02
2022-10-07T08:44:48.457Z,25.38
2022-10-07T08:47:39.967Z,24.38
2022-10-07T08:50:09.783Z,25.40
2022-10-07T08:52:39.653Z,27.25
2022-10-07T08:55:30.368Z,28.35
2022-10-07T08:58:15.812Z,29.90
2022-10-07T09:01:07.702Z,29.58
2022-10-07T09:03:58.756Z,30.48
2022-10-07T09:06:37.425Z,31.33
2022-10-07T09:09:11.864Z,30.83
2022-10-07T09:11:42.825Z,28.92
2022-10-07T09:14:37.718Z,29.38
2022-10-07T09:17:25.146Z,28.45
2022-10-07T09:19:58.095Z,28.63
2022-10-07T09:22:49.653Z,29.73
2022-10-07T09:25:21.555Z,30.13
2022-10-07T09:27:50.389Z,30.80
2022-10-07T09:30:17.367Z,32.08
2022-10-07T09:32:47.190Z,32.30
2022-10-07T09:35:21.994Z,34.15
2022-10-07T09:38:15.556Z,34.90
2022-10-07T09:41:04.465Z,29.60
2022-10-07T09:43:32.875Z,31.67
2022-10-07T09:46:00.924Z,36.00
2022-10-07T09:48:33.591Z,40.88
2022-10-07T09:51:15.496Z,37.00
2022-10-07T09:54:03.833Z,40.63
2022-10-07T09:56:40.351Z,37.35
2022-10-07T09:59:25.165Z,36.35
2022-10-07T10:02:15.434Z,38.45
2022-10-07T10:04:53.774Z,37.13
2022-10-07T10:07:25.493Z,34.33
2022-10-07T10:09:57.303Z,36.22
2022-10-07T10:12:25.111Z,36.60
2022-10-07T10:14:55.195Z,35.78
2022-10-07T10:17:38.472Z,37.72
2022-10-07T10:20:43.350Z,33.92
2022-10-07T10:23:43.536Z,34.10
2022-10-07T10:26:29.380Z,31.92
2022-10-07T10:29:14.986Z,32.03
2022-10-07T10:31:54.058Z,31.40
2022-10-07T10:34:45.292Z,29.10
2022-10-07T10:37:20.333Z,29.27
2022-10-07T10:39:50.087Z,28.00
2022-10-07T10:42:22.935Z,29.88
2022-10-07T10:45:11.871Z,30.50
2022-10-07T10:47:41.295Z,32.20
2022-10-07T10:50:23.677Z,33.03
2022-10-07T10:53:21.116Z,33.97
2022-10-07T10:56:12.199Z,31.58
2022-10-07T10:58:45.159Z,30.15
2022-10-07T11:01:43.020Z,32.30
2022-10-07T11:04:48.082Z,32.08
2022-10-07T11:07:27.425Z,29.08
2022-10-07T11:10:05.304Z,28.55
2022-10-07T11:12:39.924Z,30.60
2022-10-07T11:15:35.032Z,28.50
2022-10-07T11:18:07.918Z,27.37
2022-10-07T11:20:43.710Z,27.48
2022-10-07T11:23:32.197Z,23.55
2022-10-07T11:26:29.989Z,24.00
2022-10-07T11:29:09.670Z,22.60
2022-10-07T11:31:39.771Z,25.35
2022-10-07T11:34:31.221Z,22.13
2022-10-07T11:37:08.736Z,22.58
2022-10-07T11:39:39.800Z,20.10
2022-10-07T11:42:37.005Z,21.00
2022-10-07T11:45:07.949Z,17.05
2022-10-07T11:47:46.733Z,20.25
2022-10-07T11:50:22.758Z,18.17
2022-10-07T11:52:53.207Z,20.80
2022-10-07T11:55:51.596Z,17.70
2022-10-07T11:58:25.848Z,19.13
2022-10-07T12:01:30.707Z,18.23
2022-10-07T12:04:22.539Z,19.77
2022-10-07T12:07:26.588Z,18.52
2022-10-07T12:09:56.165Z,21.60
2022-10-07T12:12:23.851Z,21.20
2022-10-07T12:15:02.477Z,21.30
2022-10-07T12:17:30.308Z,19.25
2022-10-07T12:20:35.557Z,20.83
2022-10-07T12:23:18.169Z,19.02
2022-10-07T12:25:55.904Z,14.70
2022-10-07T12:28:41.814Z,9.60
2022-10-07T12:31:19.101Z,14.48
2022-10-07T12:33:45.912Z,16.58
2022-10-07T12:36:18.870Z,14.23
2022-10-07T12:39:01.863Z,20.23
2022-10-07T12:41:40.814Z,18.38
2022-10-07T12:44:19.758Z,19.27
2022-10-07T12:46:52.538Z,18.63
2022-10-07T12:49:34.175Z,14.10
2022-10-07T12:52:06.679Z,13.57
2022-10-07T12:54:52.002Z,15.07
2022-10-07T12:57:23.160Z,17.17
2022-10-07T13:00:10.556Z,16.48
2022-10-07T13:03:03.405Z,18.10
2022-10-07T13:05:54.567Z,17.98
2022-10-07T13:09:05.622Z,15.98
2022-10-07T13:12:06.821Z,13.55
2022-10-07T13:14:46.355Z,13.77
2022-10-07T13:17:40.273Z,12.80
2022-10-07T13:20:18.392Z,12.80
2022-10-07T13:22:47.770Z,13.85
2022-10-07T13:25:18.878Z,13.65
2022-10-07T13:27:54.653Z,14.98
2022-10-07T13:30:35.528Z,14.23
2022-10-07T13:33:17.262Z,10.38
2022-10-07T13:35:44.081Z,12.10
2022-10-07T13:38:28.357Z,10.18
2022-10-07T13:41:15.328Z,10.38
2022-10-07T13:43:44.772Z,12.20
2022-10-07T13:46:12.701Z,12.40
2022-10-07T13:48:45.660Z,10.45
2022-10-07T13:51:35.456Z,11.25
2022-10-07T13:54:05.713Z,10.43
2022-10-07T13:56:36.060Z,10.35
2022-10-07T13:59:04.158Z,10.93
2022-10-07T14:01:32.267Z,10.48
2022-10-07T14:04:11.655Z,10.20
2022-10-07T14:06:53.589Z,11.93
2022-10-07T14:09:33.990Z,13.88
2022-10-07T14:12:09.007Z,12.07
2022-10-07T14:17:34.845Z,12.20
2022-10-07T14:20:05.860Z,12.95
2022-10-07T14:22:45.076Z,14.15
2022-10-07T14:25:21.254Z,11.77
2022-10-07T14:27:54.014Z,12.07
2022-10-07T14:30:55.534Z,11.27
2022-10-07T14:33:56.625Z,10.68
2022-10-07T14:36:23.836Z,13.18
2022-10-07T14:38:52.448Z,9.82
2022-10-07T14:41:21.922Z,9.35
2022-10-07T14:43:51.935Z,8.48
2022-10-07T14:46:21.579Z,7.15
2022-10-07T14:48:49.231Z,11.00
2022-10-07T14:51:19.552Z,7.25
2022-10-07T14:53:51.977Z,6.45
2022-10-07T14:56:34.528Z,7.28
2022-10-07T14:59:01.442Z,7.55
2022-10-07T15:01:29.735Z,6.28
2022-10-07T15:03:57.943Z,7.22
2022-10-07T15:06:25.209Z,8.13
2022-10-07T15:08:52.329Z,8.10
2022-10-07T15:11:20.894Z,6.60
2022-10-07T15:13:49.233Z,8.32
2022-10-07T15:16:22.250Z,7.57
2022-10-07T15:18:52.807Z,8.32
2022-10-07T15:21:21.279Z,6.13
2022-10-07T15:23:54.421Z,7.20
2022-10-07T15:26:23.899Z,6.82
2022-10-07T15:28:58.228Z,6.90
2022-10-07T15:31:27.301Z,6.95
2022-10-07T15:33:57.041Z,6.75
2022-10-07T15:36:29.285Z,7.53
2022-10-07T15:38:58.940Z,6.75
2022-10-07T15:41:39.314Z,7.18
2022-10-07T15:44:12.562Z,6.45
2022-10-07T15:46:39.292Z,8.07
2022-10-07T15:49:07.518Z,5.90
2022-10-07T15:51:36.449Z,6.70
2022-10-07T15:54:04.204Z,6.18
2022-10-07T15:56:31.110Z,5.95
2022-10-07T15:59:00.343Z,6.30
2022-10-07T16:01:28.346Z,6.35
2022-10-07T16:03:55.823Z,6.20
2022-10-07T16:06:24.561Z,5.68
2022-10-07T16:08:55.098Z,6.65
2022-10-07T16:11:22.416Z,7.90
2022-10-07T16:13:49.869Z,6.85
2022-10-07T16:16:19.159Z,6.85
2022-10-07T16:18:48.062Z,8.60
2022-10-07T16:21:23.352Z,7.00
2022-10-07T16:26:24.570Z,6.53
2022-10-07T16:29:11.287Z,6.88
2022-10-07T16:31:40.347Z,6.32
2022-10-07T16:34:08.566Z,6.97
2022-10-07T16:36:36.096Z,6.53
2022-10-07T16:39:04.978Z,6.18
2022-10-07T16:41:32.747Z,6.57
2022-10-07T16:44:00.360Z,5.78
2022-10-07T16:46:27.595Z,6.95
2022-10-07T16:48:55.155Z,6.80
2022-10-07T16:51:24.715Z,7.40
2022-10-07T16:53:55.508Z,7.03
2022-10-07T16:56:22.999Z,7.45
2022-10-07T16:58:56.565Z,7.95
2022-10-07T17:01:25.176Z,7.13
2022-10-07T17:03:52.793Z,7.10
2022-10-07T17:06:20.878Z,7.32
2022-10-07T17:08:48.905Z,7.45
2022-10-07T17:11:30.353Z,8.02
2022-10-07T17:13:58.459Z,7.65
2022-10-07T17:16:26.881Z,8.07
2022-10-07T17:18:53.960Z,7.70
2022-10-07T17:21:21.443Z,7.70
2022-10-07T17:23:48.765Z,7.32
2022-10-07T17:26:16.936Z,8.45
2022-10-07T17:28:43.741Z,7.63
2022-10-07T17:31:12.880Z,7.82
2022-10-07T17:33:41.142Z,7.75
2022-10-07T17:36:10.080Z,7.53
2022-10-07T17:38:41.327Z,7.72
2022-10-07T17:41:12.200Z,8.73
2022-10-07T17:43:40.151Z,9.07
2022-10-07T17:46:12.455Z,9.15
2022-10-07T17:48:47.832Z,9.38
2022-10-07T17:51:16.342Z,8.68
2022-10-07T17:53:43.750Z,10.15
2022-10-07T17:56:14.302Z,8.98
2022-10-07T17:58:42.726Z,8.25
2022-10-07T18:01:15.637Z,9.25
2022-10-07T18:03:43.406Z,9.00
2022-10-07T18:06:11.347Z,9.07
2022-10-07T18:08:41.876Z,10.40
2022-10-07T18:11:09.120Z,10.50
2022-10-07T18:13:54.909Z,10.07
2022-10-07T18:16:22.265Z,10.10
2022-10-07T18:18:55.010Z,10.27
2022-10-07T18:21:23.126Z,10.23
2022-10-07T18:23:55.646Z,9.95
2022-10-07T18:26:22.664Z,12.00
2022-10-07T18:28:49.692Z,10.68
2022-10-07T18:31:17.738Z,10.40
2022-10-07T18:33:46.042Z,9.98
2022-10-07T18:36:15.675Z,10.65
2022-10-07T18:38:44.302Z,10.32
2022-10-07T18:41:13.572Z,10.23
2022-10-07T18:43:41.563Z,10.25
2022-10-07T18:46:15.119Z,11.27
2022-10-07T18:48:44.840Z,10.73
2022-10-07T18:51:13.226Z,11.07
2022-10-07T18:53:42.010Z,11.80
2022-10-07T18:56:15.134Z,11.90
2022-10-07T18:58:44.628Z,12.43
2022-10-07T19:01:19.282Z,12.13
2022-10-07T19:03:48.897Z,12.68
2022-10-07T19:06:18.610Z,11.65
2022-10-07T19:08:46.294Z,12.65
2022-10-07T19:11:18.420Z,12.38
2022-10-07T19:13:50.074Z,12.40
2022-10-07T19:16:19.830Z,13.13
2022-10-07T19:18:48.525Z,13.63
2022-10-07T19:21:19.393Z,13.30
2022-10-07T19:23:48.337Z,13.10
2022-10-07T19:26:21.335Z,14.40
2022-10-07T19:28:50.205Z,15.00
2022-10-07T19:31:20.438Z,14.05
2022-10-07T19:33:50.235Z,14.30
2022-10-07T19:36:19.289Z,15.25
2022-10-07T19:38:52.435Z,14.95
2022-10-07T19:41:22.646Z,15.77
2022-10-07T19:43:50.974Z,14.40
2022-10-07T19:46:21.215Z,14.80
2022-10-07T19:48:49.023Z,15.27
2022-10-07T19:51:20.041Z,15.05
2022-10-07T19:53:48.121Z,16.80
2022-10-07T19:56:24.600Z,16.02
2022-10-07T19:58:59.752Z,14.85
2022-10-07T20:01:29.884Z,15.02
2022-10-07T20:03:59.553Z,15.82
2022-10-07T20:06:27.450Z,16.80
2022-10-07T20:08:56.259Z,15.75
2022-10-07T20:11:24.449Z,15.32
2022-10-07T20:13:53.748Z,16.17
2022-10-07T20:16:24.071Z,15.32
2022-10-07T20:18:57.411Z,14.57
2022-10-07T20:21:24.903Z,15.35
2022-10-07T20:23:54.082Z,15.50
2022-10-07T20:26:29.341Z,15.10
2022-10-07T20:29:01.808Z,15.45
2022-10-07T20:31:39.115Z,15.88
2022-10-07T20:34:08.300Z,16.05
2022-10-07T20:36:37.990Z,17.05
2022-10-07T20:39:34.854Z,16.52
2022-10-07T20:42:20.394Z,16.45
2022-10-07T20:44:52.318Z,16.60
2022-10-07T20:47:21.075Z,17.38
2022-10-07T20:49:50.909Z,17.02
2022-10-07T20:52:20.506Z,17.50
2022-10-07T20:54:48.120Z,16.10
2022-10-07T20:57:17.849Z,17.70
2022-10-07T20:59:44.847Z,17.23
2022-10-07T21:02:14.074Z,17.38
2022-10-07T21:04:40.962Z,16.75
2022-10-07T21:07:11.335Z,17.20
2022-10-07T21:09:39.671Z,16.80
2022-10-07T21:12:09.766Z,17.10
2022-10-07T21:14:36.912Z,16.33
2022-10-07T21:17:05.271Z,16.40
2022-10-07T21:19:32.667Z,16.33
2022-10-07T21:21:59.898Z,16.23
2022-10-07T21:24:26.613Z,17.75
2022-10-07T21:26:53.390Z,17.10
2022-10-07T21:29:20.217Z,17.17
2022-10-07T21:31:46.983Z,18.05
2022-10-07T21:34:13.674Z,16.83
2022-10-07T21:36:49.315Z,16.15
2022-10-07T21:39:17.177Z,16.20
2022-10-07T21:41:43.954Z,16.55
2022-10-07T21:44:13.212Z,17.17
2022-10-07T21:46:42.789Z,16.60
2022-10-07T21:49:09.767Z,16.77
2022-10-07T21:51:36.526Z,17.05
2022-10-07T21:54:04.139Z,16.75
2022-10-07T21:56:32.395Z,15.93
2022-10-07T21:59:01.215Z,16.77
2022-10-07T22:01:28.305Z,16.75
2022-10-07T22:03:57.164Z,17.38
2022-10-07T22:06:44.965Z,16.13
2022-10-07T22:09:13.813Z,16.05
2022-10-07T22:11:40.955Z,15.88
2022-10-07T22:14:12.280Z,17.15
2022-10-07T22:16:40.080Z,17.88
2022-10-07T22:19:06.860Z,16.77
2022-10-07T22:21:35.813Z,16.85
2022-10-07T22:24:04.938Z,17.15
2022-10-07T22:26:35.251Z,17.38
2022-10-07T22:29:02.057Z,18.27
2022-10-07T22:31:30.206Z,17.63
2022-10-07T22:33:59.743Z,16.40
2022-10-07T22:36:28.193Z,17.88
2022-10-07T22:38:56.554Z,17.40
2022-10-07T22:41:24.528Z,17.70
2022-10-07T22:43:53.114Z,17.63
2022-10-07T22:46:26.549Z,17.90
2022-10-07T22:48:58.188Z,16.42
2022-10-07T22:51:28.444Z,19.60
2022-10-07T22:53:56.873Z,17.55
2022-10-07T22:56:25.796Z,17.92
2022-10-07T22:58:59.732Z,17.02
2022-10-07T23:01:31.235Z,18.17
2022-10-07T23:04:02.988Z,17.48
2022-10-07T23:06:35.076Z,18.50
2022-10-07T23:09:03.220Z,18.10
2022-10-07T23:11:30.982Z,18.15
2022-10-07T23:13:57.793Z,18.48
2022-10-07T23:16:34.060Z,18.67
2022-10-07T23:19:00.981Z,18.02
2022-10-07T23:21:32.823Z,19.05
2022-10-07T23:24:06.040Z,18.63
2022-10-07T23:26:36.281Z,16.83
2022-10-07T23:29:03.232Z,16.75
2022-10-07T23:31:32.051Z,16.25
2022-10-07T23:34:00.384Z,17.10
2022-10-07T23:36:27.674Z,17.20
2022-10-07T23:38:54.420Z,17.83
2022-10-07T23:41:24.238Z,18.10
2022-10-07T23:43:52.708Z,18.40
2022-10-07T23:46:20.846Z,18.02
2022-10-07T23:48:48.135Z,17.35
2022-10-07T23:51:17.545Z,17.42
2022-10-07T23:53:44.654Z,18.33
2022-10-07T23:56:11.812Z,17.50
2022-10-07T23:58:39.096Z,17.17
